createdAt,value
2023-01-27T02:20:26.385Z,12.00
2023-01-27T02:38:58.740Z,2.00
2023-01-27T02:44:04.930Z,0.67
2023-01-27T02:49:42.245Z,29.75
2023-01-27T02:54:48.974Z,6.00
2023-01-27T02:59:56.412Z,3.33
2023-01-27T03:05:02.186Z,4.00
2023-01-27T03:10:09.676Z,5.50
2023-01-27T03:16:03.301Z,2.00
2023-01-27T03:21:09.053Z,0.00
2023-01-27T03:26:14.206Z,8.00
2023-01-27T03:31:22.446Z,9.00
2023-01-27T03:36:49.095Z,10.00
2023-01-27T03:47:16.867Z,0.50
2023-01-27T03:52:21.363Z,12.00
2023-01-27T03:57:25.842Z,10.00
2023-01-27T04:02:48.455Z,4.00
2023-01-27T04:07:53.015Z,7.00
2023-01-27T04:12:57.671Z,0.00
2023-01-27T04:18:02.173Z,3.50
2023-01-27T04:23:06.884Z,12.67
2023-01-27T04:28:11.404Z,10.00
2023-01-27T04:33:21.538Z,5.50
2023-01-27T04:38:27.202Z,4.00
2023-01-27T04:43:34.112Z,10.00
2023-01-27T04:48:38.880Z,4.67
2023-01-27T04:53:44.777Z,2.00
2023-01-27T04:58:49.372Z,2.00
2023-01-27T05:03:55.017Z,2.00
2023-01-27T05:09:00.757Z,5.50
2023-01-27T05:14:05.336Z,6.67
2023-01-27T05:19:12.493Z,2.00
2023-01-27T05:24:18.926Z,7.00
2023-01-27T05:29:24.721Z,2.00
2023-01-27T05:34:30.559Z,6.00
2023-01-27T05:39:35.136Z,2.00
2023-01-27T05:44:39.887Z,9.50
2023-01-27T05:49:46.326Z,2.00
2023-01-27T05:54:50.899Z,6.00
2023-01-27T05:59:55.662Z,0.00
2023-01-27T06:05:00.321Z,6.00
2023-01-27T06:10:05.134Z,2.00
2023-01-27T06:15:10.633Z,1.50
2023-01-27T06:20:15.391Z,4.67
2023-01-27T06:25:20.027Z,2.00
2023-01-27T06:30:25.282Z,5.33
2023-01-27T06:35:30.401Z,2.00
2023-01-27T06:40:35.855Z,11.50
2023-01-27T06:45:42.370Z,3.00
2023-01-27T06:50:47.497Z,6.67
2023-01-27T06:55:59.522Z,10.00
2023-01-27T07:01:08.922Z,6.00
2023-01-27T07:06:13.928Z,2.00
2023-01-27T07:11:18.682Z,2.00
2023-01-27T07:16:23.607Z,2.00
2023-01-27T07:21:28.294Z,0.00
2023-01-27T07:26:34.044Z,2.00
2023-01-27T07:31:39.532Z,7.00
2023-01-27T07:36:45.896Z,6.50
2023-01-27T07:41:54.363Z,0.00
2023-01-27T07:47:02.372Z,10.00
2023-01-27T07:52:07.189Z,0.00
2023-01-27T07:57:11.892Z,6.50
2023-01-27T08:02:16.870Z,0.00
2023-01-27T08:07:21.913Z,0.00
2023-01-27T08:12:26.644Z,0.00
2023-01-27T08:17:31.501Z,4.00
2023-01-27T08:22:36.322Z,4.00
2023-01-27T08:27:41.134Z,4.00
2023-01-27T08:32:47.505Z,6.50
2023-01-27T08:37:55.072Z,2.50
2023-01-27T08:43:00.127Z,13.33
2023-01-27T08:48:07.159Z,2.00
2023-01-27T08:53:15.988Z,0.00
2023-01-27T08:58:21.018Z,6.00
2023-01-27T09:03:27.418Z,12.25
2023-01-27T09:08:32.579Z,2.00
2023-01-27T09:13:37.698Z,6.00
2023-01-27T09:18:45.604Z,2.50
2023-01-27T09:23:54.027Z,1.50
2023-01-27T09:28:59.106Z,4.50
2023-01-27T09:34:05.072Z,6.00
2023-01-27T09:39:10.815Z,2.00
2023-01-27T09:44:30.826Z,2.00
2023-01-27T09:49:51.021Z,0.00
2023-01-27T09:55:12.217Z,2.00
2023-01-27T10:00:17.364Z,6.50
2023-01-27T10:05:28.109Z,6.67
2023-01-27T10:10:55.529Z,7.50
2023-01-27T10:16:31.032Z,12.00
2023-01-27T10:21:53.392Z,11.00
2023-01-27T10:27:09.480Z,15.75
2023-01-27T10:32:30.144Z,26.00
2023-01-27T10:38:00.223Z,7.33
2023-01-27T10:43:25.427Z,42.67
2023-01-27T10:49:04.496Z,49.67
2023-01-27T10:54:15.583Z,42.00
2023-01-27T10:59:42.632Z,27.33
2023-01-27T11:04:53.618Z,33.00
2023-01-27T11:10:02.796Z,44.00
2023-01-27T11:15:36.777Z,41.33
2023-01-27T11:20:54.368Z,43.00
2023-01-27T11:26:11.086Z,70.25
2023-01-27T11:31:43.438Z,74.00
2023-01-27T11:36:50.109Z,50.00
2023-01-27T11:41:57.544Z,48.00
2023-01-27T11:47:07.097Z,50.00
2023-01-27T11:52:22.198Z,66.33
2023-01-27T11:57:31.743Z,45.33
2023-01-27T12:03:05.912Z,50.00
2023-01-27T12:08:12.412Z,50.00
2023-01-27T12:18:27.835Z,73.25
2023-01-27T12:23:41.216Z,49.33
2023-01-27T12:28:55.023Z,23.25
2023-01-27T12:34:20.318Z,24.50
2023-01-27T12:39:40.849Z,16.33
2023-01-27T12:44:47.996Z,12.00
2023-01-27T12:49:53.486Z,48.75
2023-01-27T12:54:59.182Z,31.33
2023-01-27T13:00:04.736Z,30.50
2023-01-27T13:05:17.688Z,27.67
2023-01-27T13:10:32.060Z,50.00
2023-01-27T13:15:42.893Z,45.00
2023-01-27T13:21:06.395Z,41.00
2023-01-27T13:26:21.875Z,35.00
2023-01-27T13:31:48.614Z,49.50
2023-01-27T13:37:19.108Z,32.25
2023-01-27T13:42:40.096Z,26.75
2023-01-27T13:47:56.616Z,48.67
2023-01-27T13:53:05.788Z,49.75
2023-01-27T13:58:49.205Z,42.00
2023-01-27T14:04:22.059Z,25.50
2023-01-27T14:09:40.703Z,18.00
2023-01-27T14:20:19.590Z,33.75
2023-01-27T14:25:40.269Z,10.00
2023-01-27T14:30:49.041Z,22.00
2023-01-27T14:36:00.799Z,12.50
2023-01-27T14:41:14.697Z,15.67
2023-01-27T14:46:24.183Z,15.50
2023-01-27T14:51:38.329Z,18.50
2023-01-27T14:56:49.230Z,27.00
2023-01-27T15:02:09.337Z,28.75
2023-01-27T15:07:32.796Z,20.33
2023-01-27T15:12:56.967Z,50.00
2023-01-27T15:18:17.043Z,33.25
2023-01-27T15:23:54.923Z,64.25
2023-01-27T15:29:01.474Z,43.25
2023-01-27T15:34:06.398Z,28.00
2023-01-27T15:39:11.486Z,33.00
2023-01-27T15:44:21.702Z,29.75
2023-01-27T15:50:12.540Z,10.67
2023-01-27T15:55:30.507Z,15.00
2023-01-27T16:00:36.966Z,26.50
2023-01-27T16:05:53.632Z,18.67
2023-01-27T16:11:25.356Z,28.25
2023-01-27T16:16:36.423Z,33.33
2023-01-27T16:22:00.176Z,23.33
2023-01-27T16:27:36.287Z,32.75
2023-01-27T16:32:52.680Z,26.50
2023-01-27T16:38:18.951Z,11.33
2023-01-27T16:43:47.461Z,18.33
2023-01-27T16:48:54.680Z,28.50
2023-01-27T16:54:01.848Z,35.75
2023-01-27T16:59:22.438Z,28.25
2023-01-27T17:09:36.485Z,23.67
2023-01-27T17:14:48.556Z,4.00
2023-01-27T17:20:00.755Z,15.00
2023-01-27T17:25:13.507Z,14.25
2023-01-27T17:30:33.894Z,19.50
2023-01-27T17:35:41.292Z,3.50
2023-01-27T17:40:48.898Z,10.00
2023-01-27T17:46:22.996Z,5.33
2023-01-27T17:51:48.485Z,14.00
2023-01-27T18:02:12.788Z,11.00
2023-01-27T18:07:17.976Z,5.00
2023-01-27T18:12:40.579Z,2.00
2023-01-27T18:17:45.340Z,9.50
2023-01-27T18:22:51.279Z,18.25
2023-01-27T18:27:58.394Z,11.50
2023-01-27T18:33:08.048Z,13.50
2023-01-27T18:38:28.059Z,23.00
2023-01-27T18:43:33.846Z,2.00
2023-01-27T18:48:40.190Z,6.00
2023-01-27T18:53:45.358Z,4.67
2023-01-27T19:03:58.585Z,11.50
2023-01-27T19:09:05.814Z,9.50
2023-01-27T19:14:11.738Z,6.67
2023-01-27T19:19:16.482Z,23.00
2023-01-27T19:24:21.463Z,9.50
2023-01-27T19:29:27.751Z,7.50
2023-01-27T19:34:32.774Z,6.50
2023-01-27T19:39:37.703Z,14.00
2023-01-27T19:44:44.276Z,16.25
2023-01-27T19:49:48.851Z,17.75
2023-01-27T19:54:53.841Z,6.00
2023-01-27T19:59:58.782Z,16.33
2023-01-27T20:05:03.677Z,28.33
2023-01-27T20:10:11.960Z,3.50
2023-01-27T20:15:19.677Z,12.67
2023-01-27T20:20:25.776Z,5.00
2023-01-27T20:25:30.901Z,3.00
2023-01-27T20:30:36.386Z,15.33
2023-01-27T20:35:41.453Z,4.00
2023-01-27T20:40:46.461Z,2.00
2023-01-27T20:45:51.007Z,23.50
2023-01-27T20:51:07.269Z,3.33
2023-01-27T20:56:12.975Z,10.00
2023-01-27T21:01:23.361Z,2.00
2023-01-27T21:06:28.705Z,11.75
2023-01-27T21:11:34.505Z,5.50
2023-01-27T21:16:39.216Z,13.67
2023-01-27T21:21:44.728Z,6.67
2023-01-27T21:26:52.235Z,0.00
2023-01-27T21:31:58.563Z,6.00
2023-01-27T21:37:03.637Z,6.67
2023-01-27T21:42:08.608Z,4.67
2023-01-27T21:47:17.154Z,22.25
2023-01-27T21:52:23.474Z,6.00
2023-01-27T21:57:29.081Z,4.00
2023-01-27T22:02:34.535Z,9.50
2023-01-27T22:07:40.253Z,5.50
2023-01-27T22:12:45.695Z,13.33
2023-01-27T22:17:52.354Z,12.00
2023-01-27T22:22:59.256Z,12.67
2023-01-27T22:28:04.368Z,17.00
2023-01-27T22:33:09.477Z,4.00
2023-01-27T22:38:16.321Z,8.67
2023-01-27T22:43:22.147Z,14.75
2023-01-27T22:48:27.104Z,10.00
2023-01-27T22:53:33.676Z,7.00
2023-01-27T22:58:39.742Z,15.50
2023-01-27T23:03:44.704Z,14.25
2023-01-27T23:08:49.690Z,16.50
2023-01-27T23:13:56.997Z,4.00
2023-01-27T23:19:02.819Z,6.00
2023-01-27T23:24:08.072Z,9.00
2023-01-27T23:29:24.333Z,5.00
2023-01-27T23:34:30.676Z,8.00
2023-01-27T23:39:36.792Z,9.33
2023-01-27T23:44:41.862Z,17.67
2023-01-27T23:49:47.651Z,8.00
2023-01-27T23:54:52.858Z,6.00
2023-01-27T23:59:57.858Z,19.00
